Wetterdaten: aktuell Donnerstag, 25.03.2021 14:30
Datum Zeit Temp. A. Feuchte A. Luftdruck Regen Wind UV Solar Windben
25.03.2021 14:30 14,4 C 50 % 1018,4 hPa 0,0 l/m 6,4 km/h (2 Bft) 0,0 UV-I 469 W/m 11,3 km/h (2 Bft)
25.03.2021 13:30 13,6 C 51 % 1019,0 hPa 0,0 l/m 6,4 km/h (2 Bft) 0,0 UV-I 267 W/m 8,0 km/h (2 Bft)
25.03.2021 12:30 13,1 C 54 % 1019,2 hPa 0,0 l/m 9,7 km/h (2 Bft) 0,0 UV-I 571 W/m 14,5 km/h (3 Bft)
25.03.2021 11:30 13,2 C 56 % 1019,7 hPa 0,0 l/m 4,8 km/h (1 Bft) 0,0 UV-I 666 W/m 8,0 km/h (2 Bft)
25.03.2021 10:30 11,8 C 60 % 1020,0 hPa 0,0 l/m 4,8 km/h (1 Bft) 0,0 UV-I 512 W/m 8,0 km/h (2 Bft)
25.03.2021 09:30 10,0 C 65 % 1020,0 hPa 0,0 l/m 1,6 km/h (1 Bft) 0,0 UV-I 455 W/m 4,8 km/h (1 Bft)
25.03.2021 08:30 7,2 C 73 % 1020,0 hPa 0,0 l/m 0,0 km/h (0 Bft) 0,0 UV-I 279 W/m 1,6 km/h (1 Bft)
25.03.2021 07:30 5,4 C 75 % 1019,9 hPa 0,0 l/m 0,0 km/h (0 Bft) 0,0 UV-I 128 W/m 1,6 km/h (1 Bft)
25.03.2021 06:30 4,3 C 78 % 1019,7 hPa 0,0 l/m 4,8 km/h (1 Bft) 0,0 UV-I 51 W/m 9,7 km/h (2 Bft)
25.03.2021 05:30 4,3 C 77 % 1019,5 hPa 0,0 l/m 0,0 km/h (0 Bft) 0,0 UV-I 0 W/m 0,0 km/h (0 Bft)
25.03.2021 04:30 4,0 C 78 % 1019,7 hPa 0,0 l/m 0,0 km/h (0 Bft) 0,0 UV-I 0 W/m 3,2 km/h (1 Bft)
25.03.2021 03:30 3,5 C 81 % 1019,8 hPa 0,0 l/m 0,0 km/h (0 Bft) 0,0 UV-I 0 W/m 0,0 km/h (0 Bft)
25.03.2021 02:30 3,7 C 80 % 1020,1 hPa 0,0 l/m 0,0 km/h (0 Bft) 0,0 UV-I 0 W/m 0,0 km/h (0 Bft)
25.03.2021 01:30 4,2 C 78 % 1020,3 hPa 0,0 l/m 3,2 km/h (1 Bft) 0,0 UV-I 0 W/m 4,8 km/h (1 Bft)
25.03.2021 00:30 4,4 C 78 % 1020,7 hPa 0,0 l/m 3,2 km/h (1 Bft) 0,0 UV-I 0 W/m 6,4 km/h (2 Bft)
24.03.2021 23:30 4,7 C 78 % 1021,0 hPa 0,0 l/m 0,0 km/h (0 Bft) 0,0 UV-I 0 W/m 0,0 km/h (0 Bft)
24.03.2021 22:30 4,3 C 79 % 1021,1 hPa 0,0 l/m 1,6 km/h (1 Bft) 0,0 UV-I 0 W/m 4,8 km/h (1 Bft)
24.03.2021 21:30 5,1 C 78 % 1021,2 hPa 0,0 l/m 0,0 km/h (0 Bft) 0,0 UV-I 0 W/m 1,6 km/h (1 Bft)
24.03.2021 20:30 4,6 C 81 % 1021,4 hPa 0,0 l/m 0,0 km/h (0 Bft) 0,0 UV-I 0 W/m 0,0 km/h (0 Bft)
24.03.2021 19:30 5,4 C 78 % 1021,3 hPa 0,0 l/m 0,0 km/h (0 Bft) 0,0 UV-I 0 W/m 0,0 km/h (0 Bft)
24.03.2021 18:30 8,3 C 70 % 1021,5 hPa 0,0 l/m 0,0 km/h (0 Bft) 0,0 UV-I 0 W/m 0,0 km/h (0 Bft)
24.03.2021 17:30 10,8 C 61 % 1021,3 hPa 0,0 l/m 0,0 km/h (0 Bft) 0,0 UV-I 72 W/m 1,6 km/h (1 Bft)
24.03.2021 16:14 11,4 C 59 % 1021,7 hPa 0,0 l/m 6,4 km/h (2 Bft) 0,0 UV-I 301 W/m 11,3 km/h (2 Bft)
24.03.2021 15:00 10,4 C 62 % 1022,1 hPa 0,0 l/m 6,6 km/h (2 Bft) 0,0 UV-I 469 W/m 11,3 km/h (2 Bft)
_ Min-Zeit 02:59 12:58 14:22 - 17:28 - - 17:40
Minimum _ 3,4 C 49 % 1018,4 hPa - 0,0 km/h (0 Bft) - - 0,0 km/h (0 Bft)
_ Max-Zeit 14:22 20:12 15:00 15:00 13:15 15:00 12:35 13:15
Maximum _ 14,4 C 81 % 1022,1 hPa 0,0 l/m 12,9 km/h
W (3 Bft)
0,0 UV-I 759 W/m 20,9 km/h
W (4 Bft)
Durchschnitt _ 7,7 C 70 % 1020,5 hPa #0,0 l/m 2,4 km/h (1 Bft) 0,0 UV-I 378 W/m 4,8 km/h (1 Bft)